Time;durP1;ratioP1;P1;durP2;ratioP2;P2;SDS_P1;SDS_P2;PMS_P1;PMS_P2;Temp;Humidity;BMP_temperature;BMP_pressure;BME280_temperature;BME280_humidity;BME280_pressure;Samples;Min_cycle;Max_cycle;Signal;HPM_P1;HPM_P2
2021/05/07 00:00:48;;;;;;;;;;;;;;;;;;5082752;28;32604;-72
2021/05/07 00:03:14;;;;;;;;;;;;;;;;;;5083565;28;32385;-74
2021/05/07 00:05:39;;;;;;;;;;;;;;;;;;5082884;28;32331;-74
2021/05/07 00:08:05;;;;;;;;;;;;;;;;;;5082108;28;32870;-73
2021/05/07 00:10:30;;;;;;;;;;;;;;;;;;5082328;28;32628;-73
2021/05/07 00:12:56;;;;;;;;;;;;;;;;;;5083323;28;31871;-72
2021/05/07 00:15:21;;;;;;;;;;;;;;;;;;5081586;28;30697;-73
2021/05/07 00:17:47;;;;;;;;;;;;;;;;;;5083255;28;32945;-74
2021/05/07 00:20:12;;;;;;;;;;;;;;;;;;5098830;28;32737;-74
2021/05/07 00:22:38;;;;;;;;;;;;;;;;;;5082461;28;31876;-74
2021/05/07 00:25:04;;;;;;;;;;;;;;;;;;5082400;28;32473;-73
2021/05/07 00:27:29;;;;;;;;;;;;;;;;;;5082772;28;33826;-74
2021/05/07 00:29:55;;;;;;;;;;;;;;;;;;5082630;28;32532;-74
2021/05/07 00:32:20;;;;;;;;;;;;;;;;;;5082671;28;32347;-74
2021/05/07 00:34:46;;;;;;;;;;;;;;;;;;5086307;28;32342;-75
2021/05/07 00:37:11;;;;;;;;;;;;;;;;;;5105862;28;32932;-74
2021/05/07 00:39:37;;;;;;;;;;;;;;;;;;5083228;28;32740;-74
2021/05/07 00:42:03;;;;;;;;;;;;;;;;;;5082906;28;32556;-74
2021/05/07 00:44:29;;;;;;;;;;;;;;;;;;5082772;28;32481;-74
2021/05/07 00:46:54;;;;;;;;;;;;;;;;;;5081175;28;30814;-74
2021/05/07 00:49:20;;;;;;;;;;;;;;;;;;5082810;28;32727;-74
2021/05/07 00:51:46;;;;;;;;;;;;;;;;;;5082264;28;32894;-74
2021/05/07 00:54:11;;;;;;;;;;;;;;;;;;5082116;28;32796;-74
2021/05/07 00:56:36;;;;;;;;;;;;;;;;;;5081591;28;32899;-74
2021/05/07 00:59:02;;;;;;;;;;;;;;;;;;5082644;28;32855;-74
2021/05/07 01:01:30;;;;;;;;;;;;;;;;;;5082420;28;31969;-74
2021/05/07 01:03:56;;;;;;;;;;;;;;;;;;5080547;28;30897;-74
2021/05/07 01:06:21;;;;;;;;;;;;;;;;;;5081824;28;33505;-74
2021/05/07 01:08:47;;;;;;;;;;;;;;;;;;5082455;28;33238;-74
2021/05/07 01:11:12;;;;;;;;;;;;;;;;;;5081448;28;31922;-73
2021/05/07 01:13:39;;;;;;;;;;;;;;;;;;5080809;28;32304;-74
2021/05/07 01:16:11;;;;;;;;;;;;;;;;;;5081949;28;33924;-72
2021/05/07 01:18:37;;;;;;;;;;;;;;;;;;5084766;28;33455;-71
2021/05/07 01:21:03;;;;;;;;;;;;;;;;;;5086114;28;31843;-73
2021/05/07 01:23:28;;;;;;;;;;;;;;;;;;5084170;28;30243;-78
2021/05/07 01:25:55;;;;;;;;;;;;;;;;;;5085070;28;33770;-78
2021/05/07 01:28:20;;;;;;;;;;;;;;;;;;5084108;28;32428;-78
2021/05/07 01:30:47;;;;;;;;;;;;;;;;;;5085515;28;31947;-78
2021/05/07 01:33:17;;;;;;;;;;;;;;;;;;5101067;28;30835;-78
2021/05/07 01:35:47;;;;;;;;;;;;;;;;;;5085150;28;32964;-78
2021/05/07 01:38:12;;;;;;;;;;;;;;;;;;5085749;28;32515;-79
2021/05/07 01:40:38;;;;;;;;;;;;;;;;;;5083474;28;31830;-79
2021/05/07 01:43:03;;;;;;;;;;;;;;;;;;5084927;28;32477;-78
2021/05/07 01:45:28;;;;;;;;;;;;;;;;;;5085645;28;33868;-77
2021/05/07 01:47:54;;;;;;;;;;;;;;;;;;5100580;28;31465;-79
2021/05/07 01:50:19;;;;;;;;;;;;;;;;;;5085689;28;32270;-78
2021/05/07 01:52:45;;;;;;;;;;;;;;;;;;5083861;28;32371;-77
2021/05/07 01:55:10;;;;;;;;;;;;;;;;;;5083150;28;33043;-79
2021/05/07 01:57:36;;;;;;;;;;;;;;;;;;5084384;28;32597;-78
2021/05/07 02:00:01;;;;;;;;;;;;;;;;;;5085117;28;31963;-78
2021/05/07 02:02:27;;;;;;;;;;;;;;;;;;5083038;28;32338;-75
2021/05/07 02:04:53;;;;;;;;;;;;;;;;;;5084823;28;32981;-77
2021/05/07 02:07:18;;;;;;;;;;;;;;;;;;5085487;28;32445;-77
2021/05/07 02:09:44;;;;;;;;;;;;;;;;;;5083406;28;31663;-77
2021/05/07 02:12:10;;;;;;;;;;;;;;;;;;5083539;28;32525;-77
2021/05/07 02:14:35;;;;;;;;;;;;;;;;;;5099622;28;32984;-77
2021/05/07 02:17:01;;;;;;;;;;;;;;;;;;5082842;28;31315;-77
2021/05/07 02:19:26;;;;;;;;;;;;;;;;;;5084493;28;32740;-77
2021/05/07 02:21:52;;;;;;;;;;;;;;;;;;5084387;28;32514;-76
2021/05/07 02:24:17;;;;;;;;;;;;;;;;;;5083047;28;33113;-77
2021/05/07 02:26:43;;;;;;;;;;;;;;;;;;5082934;28;31084;-77
2021/05/07 02:29:08;;;;;;;;;;;;;;;;;;5084140;28;32035;-77
2021/05/07 02:31:34;;;;;;;;;;;;;;;;;;5082531;28;31181;-72
2021/05/07 02:33:59;;;;;;;;;;;;;;;;;;5083033;28;33909;-71
2021/05/07 02:36:25;;;;;;;;;;;;;;;;;;5082835;28;32821;-70
2021/05/07 02:38:50;;;;;;;;;;;;;;;;;;5082779;28;30199;-71
2021/05/07 02:41:18;;;;;;;;;;;;;;;;;;5082317;28;31283;-71
2021/05/07 02:43:45;;;;;;;;;;;;;;;;;;5099934;28;33916;-71
2021/05/07 02:46:15;;;;;;;;;;;;;;;;;;5082138;28;32238;-73
2021/05/07 02:48:41;;;;;;;;;;;;;;;;;;5082926;28;30448;-71
2021/05/07 02:51:07;;;;;;;;;;;;;;;;;;5083763;28;33350;-71
2021/05/07 02:53:32;;;;;;;;;;;;;;;;;;5082007;28;32557;-71
2021/05/07 02:55:58;;;;;;;;;;;;;;;;;;5082575;28;33601;-71
2021/05/07 02:58:23;;;;;;;;;;;;;;;;;;5084497;28;31763;-72
2021/05/07 03:00:48;;;;;;;;;;;;;;;;;;5084054;28;32275;-72
2021/05/07 03:03:14;;;;;;;;;;;;;;;;;;5084293;28;32860;-73
2021/05/07 03:05:39;;;;;;;;;;;;;;;;;;5083599;28;32484;-72
2021/05/07 03:08:05;;;;;;;;;;;;;;;;;;5084331;28;32348;-72
2021/05/07 03:10:30;;;;;;;;;;;;;;;;;;5083525;28;32364;-71
2021/05/07 03:12:56;;;;;;;;;;;;;;;;;;5084161;28;32846;-72
2021/05/07 03:15:21;;;;;;;;;;;;;;;;;;5084243;28;32621;-72
2021/05/07 03:17:50;;;;;;;;;;;;;;;;;;5084407;28;32544;-73
2021/05/07 03:20:15;;;;;;;;;;;;;;;;;;5082683;28;32339;-71
2021/05/07 03:22:40;;;;;;;;;;;;;;;;;;5098662;28;32808;-72
2021/05/07 03:25:06;;;;;;;;;;;;;;;;;;5083930;28;32411;-72
2021/05/07 03:27:31;;;;;;;;;;;;;;;;;;5083161;28;32739;-73
2021/05/07 03:29:57;;;;;;;;;;;;;;;;;;5082921;28;32285;-72
2021/05/07 03:32:22;;;;;;;;;;;;;;;;;;5082158;28;32845;-71
2021/05/07 03:34:49;;;;;;;;;;;;;;;;;;5083124;28;32733;-71
2021/05/07 03:37:14;;;;;;;;;;;;;;;;;;5081873;28;30463;-71
2021/05/07 03:39:40;;;;;;;;;;;;;;;;;;5082671;28;32350;-71
2021/05/07 03:42:05;;;;;;;;;;;;;;;;;;5083262;28;32726;-71
2021/05/07 03:44:31;;;;;;;;;;;;;;;;;;5083491;28;32518;-71
2021/05/07 03:46:57;;;;;;;;;;;;;;;;;;5083249;28;31803;-71
2021/05/07 03:49:23;;;;;;;;;;;;;;;;;;5098019;28;32215;-72
2021/05/07 03:51:48;;;;;;;;;;;;;;;;;;5082406;28;33902;-71
2021/05/07 03:54:14;;;;;;;;;;;;;;;;;;5083154;28;32477;-72
2021/05/07 03:56:39;;;;;;;;;;;;;;;;;;5082704;28;31761;-71
2021/05/07 03:59:05;;;;;;;;;;;;;;;;;;5083147;28;33270;-71
2021/05/07 04:01:30;;;;;;;;;;;;;;;;;;5082797;28;33778;-71
2021/05/07 04:03:56;;;;;;;;;;;;;;;;;;5082590;28;32512;-71
2021/05/07 04:06:22;;;;;;;;;;;;;;;;;;5082816;28;31707;-71
2021/05/07 04:08:59;;;;;;;;;;;;;;;;;;5081107;28;32385;-71
2021/05/07 04:11:49;;;;;;;;;;;;;;;;;;5080327;28;32835;-72
2021/05/07 04:14:14;;;;;;;;;;;;;;;;;;5079856;28;36471;-71
2021/05/07 04:16:40;;;;;;;;;;;;;;;;;;5082122;28;32490;-71
2021/05/07 04:19:05;;;;;;;;;;;;;;;;;;5083261;28;33189;-71
2021/05/07 04:21:31;;;;;;;;;;;;;;;;;;5082294;28;32910;-71
2021/05/07 04:23:56;;;;;;;;;;;;;;;;;;5083240;28;33038;-71
2021/05/07 04:26:21;;;;;;;;;;;;;;;;;;5082521;28;32793;-71
2021/05/07 04:28:47;;;;;;;;;;;;;;;;;;5082196;28;32331;-71
2021/05/07 04:31:13;;;;;;;;;;;;;;;;;;5082503;28;33912;-71
2021/05/07 04:33:38;;;;;;;;;;;;;;;;;;5083021;28;32170;-71
2021/05/07 04:36:04;;;;;;;;;;;;;;;;;;5083137;28;31999;-71
2021/05/07 04:38:29;;;;;;;;;;;;;;;;;;5083099;28;32246;-71
2021/05/07 04:40:54;;;;;;;;;;;;;;;;;;5083125;28;33851;-71
2021/05/07 04:43:20;;;;;;;;;;;;;;;;;;5083071;28;32696;-72
2021/05/07 04:45:45;;;;;;;;;;;;;;;;;;5083091;28;31805;-71
2021/05/07 04:48:11;;;;;;;;;;;;;;;;;;5083952;28;32302;-71
2021/05/07 04:50:37;;;;;;;;;;;;;;;;;;5086178;28;33246;-71
2021/05/07 04:53:02;;;;;;;;;;;;;;;;;;5082830;28;32972;-72
2021/05/07 04:55:28;;;;;;;;;;;;;;;;;;5082824;28;31845;-71
2021/05/07 04:57:53;;;;;;;;;;;;;;;;;;5082014;28;32259;-71
2021/05/07 05:00:19;;;;;;;;;;;;;;;;;;5080898;28;32736;-72
2021/05/07 05:02:44;;;;;;;;;;;;;;;;;;5081677;28;33164;-72
2021/05/07 05:05:09;;;;;;;;;;;;;;;;;;5081389;28;31812;-71
2021/05/07 05:07:35;;;;;;;;;;;;;;;;;;5081595;28;32935;-72
2021/05/07 05:10:00;;;;;;;;;;;;;;;;;;5082763;28;32787;-72
2021/05/07 05:12:26;;;;;;;;;;;;;;;;;;5082625;28;32439;-72
2021/05/07 05:14:51;;;;;;;;;;;;;;;;;;5081530;28;32336;-72
2021/05/07 05:17:17;;;;;;;;;;;;;;;;;;5080282;28;32449;-72
2021/05/07 05:19:43;;;;;;;;;;;;;;;;;;5081060;28;32905;-71
2021/05/07 05:22:08;;;;;;;;;;;;;;;;;;5081552;28;33083;-72
2021/05/07 05:24:34;;;;;;;;;;;;;;;;;;5080585;28;31076;-71
2021/05/07 05:26:59;;;;;;;;;;;;;;;;;;5097213;28;33312;-72
2021/05/07 05:29:26;;;;;;;;;;;;;;;;;;5080435;28;31341;-78
2021/05/07 05:31:52;;;;;;;;;;;;;;;;;;5081590;28;32482;-74
2021/05/07 05:34:17;;;;;;;;;;;;;;;;;;5081499;28;32353;-76
2021/05/07 05:36:46;;;;;;;;;;;;;;;;;;5081378;28;32357;-77
2021/05/07 05:39:11;;;;;;;;;;;;;;;;;;5082081;28;32839;-74
2021/05/07 05:41:37;;;;;;;;;;;;;;;;;;5081970;28;32287;-73
2021/05/07 05:44:02;;;;;;;;;;;;;;;;;;5080905;28;32414;-73
2021/05/07 05:46:28;;;;;;;;;;;;;;;;;;5081109;28;32374;-75
2021/05/07 05:48:53;;;;;;;;;;;;;;;;;;5080866;28;33836;-74
2021/05/07 05:51:19;;;;;;;;;;;;;;;;;;5081529;28;32583;-74
2021/05/07 05:53:44;;;;;;;;;;;;;;;;;;5081924;28;31940;-75
2021/05/07 05:56:09;;;;;;;;;;;;;;;;;;5081996;28;33046;-75
2021/05/07 05:58:35;;;;;;;;;;;;;;;;;;5080778;28;33075;-75
2021/05/07 06:01:00;;;;;;;;;;;;;;;;;;5080890;28;32392;-74
2021/05/07 06:03:26;;;;;;;;;;;;;;;;;;5081861;28;31741;-72
2021/05/07 06:05:51;;;;;;;;;;;;;;;;;;5084366;28;32348;-71
2021/05/07 06:08:17;;;;;;;;;;;;;;;;;;5084943;28;32831;-71
2021/05/07 06:10:42;;;;;;;;;;;;;;;;;;5084061;28;33442;-71
2021/05/07 06:13:08;;;;;;;;;;;;;;;;;;5084396;28;31712;-72
2021/05/07 06:15:33;;;;;;;;;;;;;;;;;;5085236;28;32259;-72
2021/05/07 06:17:59;;;;;;;;;;;;;;;;;;5084271;28;32876;-72
2021/05/07 06:20:24;;;;;;;;;;;;;;;;;;5084883;28;32380;-70
2021/05/07 06:22:50;;;;;;;;;;;;;;;;;;5085023;28;32771;-69
2021/05/07 06:25:16;;;;;;;;;;;;;;;;;;5084890;28;32164;-69
2021/05/07 06:27:41;;;;;;;;;;;;;;;;;;5084957;28;32792;-72
2021/05/07 06:30:07;;;;;;;;;;;;;;;;;;5083632;28;37321;-72
2021/05/07 06:32:32;;;;;;;;;;;;;;;;;;5083683;28;31779;-71
2021/05/07 06:34:58;;;;;;;;;;;;;;;;;;5084856;28;32464;-73
2021/05/07 06:37:23;;;;;;;;;;;;;;;;;;5084918;28;32808;-71
2021/05/07 06:39:49;;;;;;;;;;;;;;;;;;5083581;28;32494;-72
2021/05/07 06:42:14;;;;;;;;;;;;;;;;;;5084031;28;31812;-71
2021/05/07 06:44:40;;;;;;;;;;;;;;;;;;5084243;28;32336;-72
2021/05/07 06:47:05;;;;;;;;;;;;;;;;;;5084614;28;32786;-72
2021/05/07 06:49:31;;;;;;;;;;;;;;;;;;5083539;28;33552;-72
2021/05/07 06:51:56;;;;;;;;;;;;;;;;;;5083387;28;31912;-71
2021/05/07 06:54:26;;;;;;;;;;;;;;;;;;5084555;28;33305;-72
2021/05/07 06:56:51;;;;;;;;;;;;;;;;;;5084133;28;32826;-73
2021/05/07 06:59:18;;;;;;;;;;;;;;;;;;5084181;28;32676;-72
2021/05/07 07:01:44;;;;;;;;;;;;;;;;;;5084119;28;32779;-72
2021/05/07 07:04:09;;;;;;;;;;;;;;;;;;5082188;28;30583;-72
2021/05/07 07:06:35;;;;;;;;;;;;;;;;;;5084303;28;32821;-75
2021/05/07 07:09:00;;;;;;;;;;;;;;;;;;5084420;28;33251;-72
2021/05/07 07:11:25;;;;;;;;;;;;;;;;;;5084273;28;31871;-74
2021/05/07 07:13:51;;;;;;;;;;;;;;;;;;5083593;28;32217;-72
2021/05/07 07:16:16;;;;;;;;;;;;;;;;;;5082133;28;32701;-73
2021/05/07 07:18:42;;;;;;;;;;;;;;;;;;5084229;28;32623;-69
2021/05/07 07:21:08;;;;;;;;;;;;;;;;;;5083831;28;36403;-73
2021/05/07 07:23:34;;;;;;;;;;;;;;;;;;5083872;28;32293;-73
2021/05/07 07:25:59;;;;;;;;;;;;;;;;;;5083493;28;33602;-73
2021/05/07 07:28:25;;;;;;;;;;;;;;;;;;5083917;28;32219;-73
2021/05/07 07:30:50;;;;;;;;;;;;;;;;;;5083082;28;31850;-74
2021/05/07 07:33:15;;;;;;;;;;;;;;;;;;5082843;28;32235;-73
2021/05/07 07:35:41;;;;;;;;;;;;;;;;;;5082781;28;32919;-74
2021/05/07 07:38:06;;;;;;;;;;;;;;;;;;5082577;28;32387;-77
2021/05/07 07:40:32;;;;;;;;;;;;;;;;;;5083340;28;20015;-76
2021/05/07 07:42:58;;;;;;;;;;;;;;;;;;5083300;28;32921;-73
2021/05/07 07:45:23;;;;;;;;;;;;;;;;;;5082612;28;32914;-74
2021/05/07 07:47:49;;;;;;;;;;;;;;;;;;5083413;28;32536;-72
2021/05/07 07:50:15;;;;;;;;;;;;;;;;;;5082326;28;31731;-72
2021/05/07 07:52:40;;;;;;;;;;;;;;;;;;5083383;28;32262;-75
2021/05/07 07:55:06;;;;;;;;;;;;;;;;;;5082792;28;32572;-73
2021/05/07 07:57:31;;;;;;;;;;;;;;;;;;5082738;28;33021;-72
2021/05/07 07:59:57;;;;;;;;;;;;;;;;;;5081914;28;31858;-72
2021/05/07 08:02:22;;;;;;;;;;;;;;;;;;5082760;28;32203;-72
2021/05/07 08:04:48;;;;;;;;;;;;;;;;;;5083228;28;32843;-75
2021/05/07 08:07:13;;;;;;;;;;;;;;;;;;5083029;28;32408;-72
2021/05/07 08:09:39;;;;;;;;;;;;;;;;;;5081831;28;31801;-73
2021/05/07 08:12:04;;;;;;;;;;;;;;;;;;5082508;28;32220;-73
2021/05/07 08:14:30;;;;;;;;;;;;;;;;;;5083353;28;33872;-74
2021/05/07 08:16:56;;;;;;;;;;;;;;;;;;5082265;28;33383;-72
2021/05/07 08:19:21;;;;;;;;;;;;;;;;;;5082412;28;31748;-74
2021/05/07 08:21:47;;;;;;;;;;;;;;;;;;5082051;28;32252;-72
2021/05/07 08:24:13;;;;;;;;;;;;;;;;;;5082452;28;33787;-73
2021/05/07 08:26:45;;;;;;;;;;;;;;;;;;5080126;28;32794;-75
2021/05/07 08:29:11;;;;;;;;;;;;;;;;;;5082446;28;31916;-72
2021/05/07 08:31:36;;;;;;;;;;;;;;;;;;5082014;28;31888;-73
2021/05/07 08:34:02;;;;;;;;;;;;;;;;;;5082852;28;33551;-73
2021/05/07 08:36:28;;;;;;;;;;;;;;;;;;5082171;28;32618;-73
2021/05/07 08:38:53;;;;;;;;;;;;;;;;;;5081243;28;31633;-74
2021/05/07 08:41:19;;;;;;;;;;;;;;;;;;5083029;28;33286;-74
2021/05/07 08:43:52;;;;;;;;;;;;;;;;;;5084135;28;32783;-72
2021/05/07 08:46:17;;;;;;;;;;;;;;;;;;5082983;28;32597;-74
2021/05/07 08:48:43;;;;;;;;;;;;;;;;;;5081502;28;31873;-72
2021/05/07 08:51:08;;;;;;;;;;;;;;;;;;5082568;28;32446;-73
2021/05/07 08:53:34;;;;;;;;;;;;;;;;;;5081880;28;32808;-73
2021/05/07 08:55:59;;;;;;;;;;;;;;;;;;5081928;28;32501;-74
2021/05/07 08:58:25;;;;;;;;;;;;;;;;;;5082254;28;31835;-74
2021/05/07 09:00:51;;;;;;;;;;;;;;;;;;5083048;28;32208;-77
2021/05/07 09:03:17;;;;;;;;;;;;;;;;;;5083088;28;32648;-76
2021/05/07 09:05:43;;;;;;;;;;;;;;;;;;5084819;28;32708;-76
2021/05/07 09:08:08;;;;;;;;;;;;;;;;;;5084813;28;32380;-77
2021/05/07 09:10:34;;;;;;;;;;;;;;;;;;5093495;28;32451;-76
2021/05/07 09:12:59;;;;;;;;;;;;;;;;;;5094436;28;33064;-78
2021/05/07 09:15:24;;;;;;;;;;;;;;;;;;5083280;28;32736;-78
2021/05/07 09:17:50;;;;;;;;;;;;;;;;;;5099249;28;31851;-77
2021/05/07 09:20:16;;;;;;;;;;;;;;;;;;5082903;28;33218;-77
2021/05/07 09:22:41;;;;;;;;;;;;;;;;;;5083275;28;32935;-77
2021/05/07 09:25:07;;;;;;;;;;;;;;;;;;5082708;28;32570;-74
2021/05/07 09:27:32;;;;;;;;;;;;;;;;;;5082600;28;32549;-76
2021/05/07 09:29:58;;;;;;;;;;;;;;;;;;5081879;28;33240;-76
2021/05/07 09:32:23;;;;;;;;;;;;;;;;;;5082562;28;32780;-76
2021/05/07 09:34:51;;;;;;;;;;;;;;;;;;5082681;28;33147;-77
2021/05/07 09:37:18;;;;;;;;;;;;;;;;;;5082240;28;32029;-76
2021/05/07 09:39:43;;;;;;;;;;;;;;;;;;5084318;28;32358;-76
2021/05/07 09:42:08;;;;;;;;;;;;;;;;;;5084825;28;32824;-76
2021/05/07 09:44:34;;;;;;;;;;;;;;;;;;5085245;28;33424;-77
2021/05/07 09:47:00;;;;;;;;;;;;;;;;;;5085984;28;32034;-77
2021/05/07 09:49:25;;;;;;;;;;;;;;;;;;5085840;28;32817;-76
2021/05/07 09:51:51;;;;;;;;;;;;;;;;;;5085768;28;33577;-77
2021/05/07 09:54:16;;;;;;;;;;;;;;;;;;5084720;28;32485;-77
2021/05/07 09:56:42;;;;;;;;;;;;;;;;;;5085690;28;31853;-77
2021/05/07 09:59:07;;;;;;;;;;;;;;;;;;5085658;28;32279;-77
2021/05/07 10:01:33;;;;;;;;;;;;;;;;;;5082618;28;36098;-76
2021/05/07 10:03:59;;;;;;;;;;;;;;;;;;5083355;28;32222;-76
2021/05/07 10:06:24;;;;;;;;;;;;;;;;;;5084271;28;31770;-76
2021/05/07 10:08:50;;;;;;;;;;;;;;;;;;5084573;28;32234;-74
2021/05/07 10:11:15;;;;;;;;;;;;;;;;;;5084536;28;33779;-74
2021/05/07 10:13:41;;;;;;;;;;;;;;;;;;5084128;28;32511;-74
2021/05/07 10:16:06;;;;;;;;;;;;;;;;;;5084041;28;31756;-74
2021/05/07 10:18:33;;;;;;;;;;;;;;;;;;5085101;28;33118;-74
2021/05/07 10:20:58;;;;;;;;;;;;;;;;;;5084078;28;32665;-75
2021/05/07 10:23:24;;;;;;;;;;;;;;;;;;5081640;28;32313;-75
2021/05/07 10:25:49;;;;;;;;;;;;;;;;;;5083571;28;31959;-75
2021/05/07 10:28:15;;;;;;;;;;;;;;;;;;5083382;28;32257;-75
2021/05/07 10:30:40;;;;;;;;;;;;;;;;;;5084686;28;32752;-71
2021/05/07 10:33:06;;;;;;;;;;;;;;;;;;5082749;28;33573;-72
2021/05/07 10:35:31;;;;;;;;;;;;;;;;;;5084484;28;32750;-73
2021/05/07 10:37:57;;;;;;;;;;;;;;;;;;5083302;28;32321;-71
2021/05/07 10:40:22;;;;;;;;;;;;;;;;;;5084584;28;32636;-71
2021/05/07 10:42:49;;;;;;;;;;;;;;;;;;5083957;28;32693;-72
2021/05/07 10:45:15;;;;;;;;;;;;;;;;;;5083310;28;32857;-73
2021/05/07 10:47:40;;;;;;;;;;;;;;;;;;5084173;28;32351;-72
2021/05/07 10:50:06;;;;;;;;;;;;;;;;;;5084334;28;32808;-71
2021/05/07 10:52:31;;;;;;;;;;;;;;;;;;5084198;28;32424;-71
2021/05/07 10:54:56;;;;;;;;;;;;;;;;;;5083559;28;31843;-72
2021/05/07 10:57:22;;;;;;;;;;;;;;;;;;5084392;28;32743;-74
2021/05/07 10:59:48;;;;;;;;;;;;;;;;;;5082897;28;32877;-72
2021/05/07 11:02:13;;;;;;;;;;;;;;;;;;5081148;28;32871;-72
2021/05/07 11:04:38;;;;;;;;;;;;;;;;;;5083804;28;32755;-71
2021/05/07 11:07:04;;;;;;;;;;;;;;;;;;5084164;28;32292;-75
2021/05/07 11:09:29;;;;;;;;;;;;;;;;;;5083448;28;32717;-72
2021/05/07 11:11:55;;;;;;;;;;;;;;;;;;5083926;28;32526;-71
2021/05/07 11:14:20;;;;;;;;;;;;;;;;;;5083156;28;32774;-72
2021/05/07 11:16:48;;;;;;;;;;;;;;;;;;5083085;28;32362;-73
2021/05/07 11:19:13;;;;;;;;;;;;;;;;;;5083228;28;32881;-73
2021/05/07 11:21:38;;;;;;;;;;;;;;;;;;5083011;28;32593;-75
2021/05/07 11:24:04;;;;;;;;;;;;;;;;;;5082885;28;31875;-71
2021/05/07 11:26:29;;;;;;;;;;;;;;;;;;5083888;28;32784;-75
2021/05/07 11:28:55;;;;;;;;;;;;;;;;;;5083753;28;32916;-75
2021/05/07 11:31:20;;;;;;;;;;;;;;;;;;5083801;28;32507;-73
2021/05/07 11:33:46;;;;;;;;;;;;;;;;;;5082281;28;32804;-73
2021/05/07 11:36:11;;;;;;;;;;;;;;;;;;5083106;28;32461;-74
2021/05/07 11:38:37;;;;;;;;;;;;;;;;;;5083415;28;32776;-73
2021/05/07 11:41:02;;;;;;;;;;;;;;;;;;5083438;28;32272;-74
2021/05/07 11:43:28;;;;;;;;;;;;;;;;;;5083407;28;32482;-72
2021/05/07 11:45:54;;;;;;;;;;;;;;;;;;5082751;28;32210;-73
2021/05/07 11:48:19;;;;;;;;;;;;;;;;;;5082949;28;32784;-72
2021/05/07 11:50:45;;;;;;;;;;;;;;;;;;5083297;28;32551;-72
2021/05/07 11:53:11;;;;;;;;;;;;;;;;;;5081616;28;30528;-75
2021/05/07 11:55:37;;;;;;;;;;;;;;;;;;5083182;28;32206;-77
2021/05/07 11:58:02;;;;;;;;;;;;;;;;;;5083075;28;33134;-77
2021/05/07 12:00:28;;;;;;;;;;;;;;;;;;5082997;28;33887;-73
2021/05/07 12:02:53;;;;;;;;;;;;;;;;;;5082516;28;32171;-73
2021/05/07 12:05:19;;;;;;;;;;;;;;;;;;5083140;28;32136;-77
2021/05/07 12:07:46;;;;;;;;;;;;;;;;;;5082589;28;32855;-76
2021/05/07 12:10:12;;;;;;;;;;;;;;;;;;5082920;28;32573;-77
2021/05/07 12:12:37;;;;;;;;;;;;;;;;;;5082449;28;31735;-76
2021/05/07 12:15:03;;;;;;;;;;;;;;;;;;5081856;28;33262;-77
2021/05/07 12:17:28;;;;;;;;;;;;;;;;;;5082230;28;32658;-76
2021/05/07 12:19:54;;;;;;;;;;;;;;;;;;5079063;28;33526;-74
2021/05/07 12:22:19;;;;;;;;;;;;;;;;;;5082295;28;31842;-76
2021/05/07 12:24:45;;;;;;;;;;;;;;;;;;5080704;28;32765;-76
2021/05/07 12:27:10;;;;;;;;;;;;;;;;;;5081427;28;32885;-77
2021/05/07 12:29:36;;;;;;;;;;;;;;;;;;5082855;28;32474;-76
2021/05/07 12:32:03;;;;;;;;;;;;;;;;;;5083211;28;31909;-76
2021/05/07 12:34:28;;;;;;;;;;;;;;;;;;5083205;28;32862;-76
2021/05/07 12:36:54;;;;;;;;;;;;;;;;;;5082884;28;32819;-76
2021/05/07 12:39:19;;;;;;;;;;;;;;;;;;5083666;28;32814;-75
2021/05/07 12:41:45;;;;;;;;;;;;;;;;;;5081092;28;31638;-76
2021/05/07 12:44:13;;;;;;;;;;;;;;;;;;5082176;28;32968;-76
2021/05/07 12:46:39;;;;;;;;;;;;;;;;;;5082705;28;33849;-76
2021/05/07 12:49:04;;;;;;;;;;;;;;;;;;5082761;28;33448;-76
2021/05/07 12:51:30;;;;;;;;;;;;;;;;;;5082514;28;31785;-76
2021/05/07 12:53:55;;;;;;;;;;;;;;;;;;5083061;28;32497;-76
2021/05/07 12:56:22;;;;;;;;;;;;;;;;;;5083016;28;32816;-76
2021/05/07 12:58:48;;;;;;;;;;;;;;;;;;5081724;28;33656;-72
2021/05/07 13:01:14;;;;;;;;;;;;;;;;;;5082223;28;31882;-72
2021/05/07 13:03:40;;;;;;;;;;;;;;;;;;5081919;28;32238;-72
2021/05/07 13:06:05;;;;;;;;;;;;;;;;;;5081497;28;32849;-72
2021/05/07 13:08:31;;;;;;;;;;;;;;;;;;5081688;28;33471;-71
2021/05/07 13:10:56;;;;;;;;;;;;;;;;;;5081540;28;31823;-72
2021/05/07 13:13:21;;;;;;;;;;;;;;;;;;5081398;28;32249;-75
2021/05/07 13:15:47;;;;;;;;;;;;;;;;;;5082521;28;32989;-75
2021/05/07 13:18:12;;;;;;;;;;;;;;;;;;5082222;28;32480;-72
2021/05/07 13:20:38;;;;;;;;;;;;;;;;;;5081333;28;31932;-73
2021/05/07 13:23:03;;;;;;;;;;;;;;;;;;5082079;28;32243;-73
2021/05/07 13:25:29;;;;;;;;;;;;;;;;;;5081732;28;32924;-73
2021/05/07 13:27:54;;;;;;;;;;;;;;;;;;5081199;28;32513;-74
2021/05/07 13:30:20;;;;;;;;;;;;;;;;;;5082166;28;32396;-74
2021/05/07 13:32:45;;;;;;;;;;;;;;;;;;5097414;28;31051;-74
2021/05/07 13:35:11;;;;;;;;;;;;;;;;;;5082426;28;33619;-75
2021/05/07 13:37:36;;;;;;;;;;;;;;;;;;5082870;28;32565;-72
2021/05/07 13:40:02;;;;;;;;;;;;;;;;;;5083829;28;31807;-74
2021/05/07 13:42:27;;;;;;;;;;;;;;;;;;5085056;28;32499;-73
2021/05/07 13:44:53;;;;;;;;;;;;;;;;;;5082061;28;32927;-73
2021/05/07 13:47:18;;;;;;;;;;;;;;;;;;5081111;28;32471;-73
2021/05/07 13:49:44;;;;;;;;;;;;;;;;;;5081346;28;31729;-74
2021/05/07 13:52:09;;;;;;;;;;;;;;;;;;5081116;28;32299;-73
2021/05/07 13:54:35;;;;;;;;;;;;;;;;;;5082085;28;33051;-74
2021/05/07 13:57:00;;;;;;;;;;;;;;;;;;5096755;28;32557;-76
2021/05/07 13:59:26;;;;;;;;;;;;;;;;;;5081573;28;31790;-73
2021/05/07 14:01:51;;;;;;;;;;;;;;;;;;5079042;28;32212;-75
2021/05/07 14:04:17;;;;;;;;;;;;;;;;;;5081080;28;33914;-73
2021/05/07 14:06:42;;;;;;;;;;;;;;;;;;5080680;28;32370;-72
2021/05/07 14:09:08;;;;;;;;;;;;;;;;;;5080798;28;32457;-74
2021/05/07 14:11:33;;;;;;;;;;;;;;;;;;5081044;28;32156;-72
2021/05/07 14:13:59;;;;;;;;;;;;;;;;;;5080436;28;33879;-74
2021/05/07 14:16:24;;;;;;;;;;;;;;;;;;5081702;28;32679;-74
2021/05/07 14:18:50;;;;;;;;;;;;;;;;;;5081897;28;31795;-73
2021/05/07 14:21:15;;;;;;;;;;;;;;;;;;5081018;28;33281;-75
2021/05/07 14:23:41;;;;;;;;;;;;;;;;;;5081659;28;32904;-74
2021/05/07 14:26:06;;;;;;;;;;;;;;;;;;5083572;28;33451;-74
2021/05/07 14:28:32;;;;;;;;;;;;;;;;;;5084231;28;31857;-74
2021/05/07 14:30:57;;;;;;;;;;;;;;;;;;5083661;28;32060;-76
2021/05/07 14:33:23;;;;;;;;;;;;;;;;;;5083937;28;33868;-73
2021/05/07 14:35:50;;;;;;;;;;;;;;;;;;5085220;28;32661;-74
2021/05/07 14:38:16;;;;;;;;;;;;;;;;;;5085238;28;32792;-72
2021/05/07 14:40:41;;;;;;;;;;;;;;;;;;5085000;28;32260;-75
2021/05/07 14:43:06;;;;;;;;;;;;;;;;;;5083906;28;33931;-75
2021/05/07 14:45:33;;;;;;;;;;;;;;;;;;5084874;28;32500;-73
2021/05/07 14:47:59;;;;;;;;;;;;;;;;;;5085375;28;32435;-71
2021/05/07 14:50:24;;;;;;;;;;;;;;;;;;5084298;28;32092;-73
2021/05/07 14:52:50;;;;;;;;;;;;;;;;;;5083950;28;33661;-72
2021/05/07 14:55:15;;;;;;;;;;;;;;;;;;5084063;28;32721;-72
2021/05/07 14:57:41;;;;;;;;;;;;;;;;;;5082034;28;31846;-75
2021/05/07 15:00:06;;;;;;;;;;;;;;;;;;5084364;28;32604;-76
2021/05/07 15:02:32;;;;;;;;;;;;;;;;;;5083334;28;32978;-73
2021/05/07 15:04:57;;;;;;;;;;;;;;;;;;5083799;28;33040;-73
2021/05/07 15:07:23;;;;;;;;;;;;;;;;;;5083260;28;32832;-72
2021/05/07 15:09:48;;;;;;;;;;;;;;;;;;5083333;28;32823;-74
2021/05/07 15:12:14;;;;;;;;;;;;;;;;;;5083310;28;32915;-74
2021/05/07 15:14:39;;;;;;;;;;;;;;;;;;5083564;28;32501;-76
2021/05/07 15:17:05;;;;;;;;;;;;;;;;;;5084377;28;31832;-73
2021/05/07 15:19:31;;;;;;;;;;;;;;;;;;5084036;28;32277;-77
2021/05/07 15:21:56;;;;;;;;;;;;;;;;;;5083773;28;32708;-74
2021/05/07 15:24:22;;;;;;;;;;;;;;;;;;5083126;28;32482;-72
2021/05/07 15:26:47;;;;;;;;;;;;;;;;;;5083153;28;32737;-76
2021/05/07 15:29:13;;;;;;;;;;;;;;;;;;5099020;28;32293;-72
2021/05/07 15:31:39;;;;;;;;;;;;;;;;;;5082929;28;33049;-76
2021/05/07 15:34:04;;;;;;;;;;;;;;;;;;5083472;28;33360;-74
2021/05/07 15:36:30;;;;;;;;;;;;;;;;;;5082989;28;31889;-73
2021/05/07 15:38:55;;;;;;;;;;;;;;;;;;5080930;28;33063;-74
2021/05/07 15:41:21;;;;;;;;;;;;;;;;;;5082933;28;32855;-73
2021/05/07 15:43:46;;;;;;;;;;;;;;;;;;5080674;28;32928;-72
2021/05/07 15:46:11;;;;;;;;;;;;;;;;;;5083757;28;31980;-76
2021/05/07 15:48:37;;;;;;;;;;;;;;;;;;5080560;28;32343;-72
2021/05/07 15:51:02;;;;;;;;;;;;;;;;;;5083575;28;33032;-75
2021/05/07 15:53:28;;;;;;;;;;;;;;;;;;5083743;28;32468;-72
2021/05/07 15:55:53;;;;;;;;;;;;;;;;;;5083859;28;32392;-77
2021/05/07 15:58:19;;;;;;;;;;;;;;;;;;5080467;28;32352;-77
2021/05/07 16:00:44;;;;;;;;;;;;;;;;;;5083045;28;32740;-74
2021/05/07 16:03:10;;;;;;;;;;;;;;;;;;5082600;28;33369;-74
2021/05/07 16:05:37;;;;;;;;;;;;;;;;;;5099127;28;30655;-72
2021/05/07 16:08:03;;;;;;;;;;;;;;;;;;5080449;28;32448;-74
2021/05/07 16:10:34;;;;;;;;;;;;;;;;;;5083354;28;32915;-75
2021/05/07 16:13:00;;;;;;;;;;;;;;;;;;5080376;28;32487;-77
2021/05/07 16:15:25;;;;;;;;;;;;;;;;;;5082183;28;31707;-73
2021/05/07 16:17:51;;;;;;;;;;;;;;;;;;5082707;28;33244;-72
2021/05/07 16:20:17;;;;;;;;;;;;;;;;;;5082795;28;33806;-73
2021/05/07 16:22:43;;;;;;;;;;;;;;;;;;5083056;28;32573;-72
2021/05/07 16:25:09;;;;;;;;;;;;;;;;;;5083114;28;31757;-73
2021/05/07 16:27:35;;;;;;;;;;;;;;;;;;5082243;28;32966;-79
2021/05/07 16:30:01;;;;;;;;;;;;;;;;;;5082950;28;32940;-77
2021/05/07 16:32:26;;;;;;;;;;;;;;;;;;5082402;28;36630;-74
2021/05/07 16:34:54;;;;;;;;;;;;;;;;;;5083107;28;32397;-79